createdAt,value
2018-11-06T00:00:15.559Z,99567.45
2018-11-06T00:03:03.826Z,99568.77
2018-11-06T00:05:46.843Z,99561.87
2018-11-06T00:08:29.793Z,99556.23
2018-11-06T00:11:13.452Z,99557.58
2018-11-06T00:13:56.158Z,99566.41
2018-11-06T00:16:39.542Z,99560.33
2018-11-06T00:19:22.396Z,99565.04
2018-11-06T00:22:05.034Z,99564.81
2018-11-06T00:24:48.703Z,99572.33
2018-11-06T00:27:32.012Z,99576.55
2018-11-06T00:30:14.748Z,99569.88
2018-11-06T00:32:58.660Z,99569.44
2018-11-06T00:35:41.991Z,99571.17
2018-11-06T00:38:24.791Z,99563.47
2018-11-06T00:41:08.941Z,99571.31
2018-11-06T00:43:52.503Z,99580.84
2018-11-06T00:46:36.621Z,99588.64
2018-11-06T00:49:19.419Z,99599.22
2018-11-06T00:52:01.556Z,99592.94
2018-11-06T00:54:45.511Z,99590.11
2018-11-06T00:57:27.788Z,99581.52
2018-11-06T01:00:15.143Z,99587.55
2018-11-06T01:02:57.725Z,99597.25
2018-11-06T01:05:41.695Z,99592.19
2018-11-06T01:08:24.176Z,99585.94
2018-11-06T01:11:07.197Z,99584.73
2018-11-06T01:13:50.312Z,99579.04
2018-11-06T01:16:33.242Z,99573.81
2018-11-06T01:19:16.607Z,99572.56
2018-11-06T01:22:01.208Z,99575.13
2018-11-06T01:24:43.568Z,99571.75
2018-11-06T01:27:26.524Z,99575.64
2018-11-06T01:30:18.867Z,99574.44
2018-11-06T01:33:01.243Z,99585.13
2018-11-06T01:35:44.141Z,99591.94
2018-11-06T01:38:27.108Z,99594.91
2018-11-06T01:41:09.540Z,99592.86
2018-11-06T01:43:53.199Z,99593.30
2018-11-06T01:46:35.716Z,99590.88
2018-11-06T01:49:18.457Z,99580.09
2018-11-06T01:52:01.471Z,99594.25
2018-11-06T01:54:44.974Z,99588.72
2018-11-06T01:57:27.352Z,99583.58
2018-11-06T02:00:13.909Z,99586.59
2018-11-06T02:02:57.025Z,99588.81
2018-11-06T02:05:39.021Z,99584.52
2018-11-06T02:08:22.571Z,99587.02
2018-11-06T02:11:05.434Z,99586.53
2018-11-06T02:13:48.096Z,99587.77
2018-11-06T02:16:31.425Z,99593.11
2018-11-06T02:19:14.607Z,99595.09
2018-11-06T02:21:57.757Z,99590.13
2018-11-06T02:24:40.452Z,99588.20
2018-11-06T02:27:23.668Z,99587.73
2018-11-06T02:30:07.578Z,99591.05
2018-11-06T02:32:49.891Z,99590.45
2018-11-06T02:35:32.578Z,99591.98
2018-11-06T02:38:15.603Z,99600.45
2018-11-06T02:40:58.726Z,99604.34
2018-11-06T02:43:41.446Z,99595.27
2018-11-06T02:46:24.751Z,99605.59
2018-11-06T02:49:08.267Z,99605.19
2018-11-06T02:51:51.579Z,99604.92
2018-11-06T02:54:34.620Z,99603.31
2018-11-06T02:57:17.663Z,99601.65
2018-11-06T03:00:01.158Z,99604.25
2018-11-06T03:02:44.763Z,99604.66
2018-11-06T03:05:27.642Z,99602.08
2018-11-06T03:08:10.136Z,99599.07
2018-11-06T03:10:53.395Z,99599.94
2018-11-06T03:13:36.064Z,99595.63
2018-11-06T03:16:18.574Z,99594.77
2018-11-06T03:19:02.073Z,99597.36
2018-11-06T03:21:45.264Z,99603.91
2018-11-06T03:24:27.658Z,99605.65
2018-11-06T03:27:11.030Z,99604.78
2018-11-06T03:29:54.007Z,99603.93
2018-11-06T03:32:36.634Z,99609.07
2018-11-06T03:35:20.921Z,99614.23
2018-11-06T03:38:03.704Z,99619.02
2018-11-06T03:40:46.008Z,99620.32
2018-11-06T03:43:29.119Z,99612.63
2018-11-06T03:46:12.148Z,99628.44
2018-11-06T03:48:55.588Z,99631.19
2018-11-06T03:51:38.950Z,99626.61
2018-11-06T03:54:21.971Z,99618.06
2018-11-06T03:57:04.677Z,99621.09
2018-11-06T03:59:47.504Z,99624.59
2018-11-06T04:02:31.415Z,99619.88
2018-11-06T04:05:14.569Z,99616.05
2018-11-06T04:07:58.535Z,99619.94
2018-11-06T04:10:41.537Z,99620.85
2018-11-06T04:13:23.578Z,99624.72
2018-11-06T04:16:06.504Z,99628.55
2018-11-06T04:18:49.971Z,99629.34
2018-11-06T04:21:40.976Z,99631.90
2018-11-06T04:24:23.696Z,99631.06
2018-11-06T04:27:06.783Z,99631.11
2018-11-06T04:29:49.891Z,99630.63
2018-11-06T04:32:32.260Z,99623.74
2018-11-06T04:35:15.046Z,99616.45
2018-11-06T04:37:59.007Z,99610.04
2018-11-06T04:40:41.290Z,99603.09
2018-11-06T04:43:24.408Z,99599.18
2018-11-06T04:46:07.523Z,99602.11
2018-11-06T04:48:50.801Z,99609.80
2018-11-06T04:51:33.930Z,99616.21
2018-11-06T04:54:17.772Z,99612.77
2018-11-06T04:57:00.947Z,99614.48
2018-11-06T04:59:43.903Z,99615.77
2018-11-06T05:02:26.261Z,99606.31
2018-11-06T05:05:09.328Z,99613.95
2018-11-06T05:07:52.307Z,99602.31
2018-11-06T05:10:34.853Z,99595.71
2018-11-06T05:13:18.083Z,99593.53
2018-11-06T05:16:01.219Z,99594.34
2018-11-06T05:18:43.735Z,99590.03
2018-11-06T05:21:27.353Z,99594.84
2018-11-06T05:24:09.966Z,99601.30
2018-11-06T05:26:52.710Z,99608.17
2018-11-06T05:29:35.676Z,99607.33
2018-11-06T05:32:18.825Z,99605.59
2018-11-06T05:35:01.733Z,99617.23
2018-11-06T05:37:45.300Z,99610.77
2018-11-06T05:40:38.765Z,99608.19
2018-11-06T05:43:21.574Z,99597.32
2018-11-06T05:46:04.699Z,99597.44
2018-11-06T05:48:47.894Z,99590.44
2018-11-06T05:51:31.056Z,99592.09
2018-11-06T05:54:14.041Z,99607.16
2018-11-06T05:56:57.797Z,99632.94
2018-11-06T05:59:40.988Z,99633.82
2018-11-06T06:02:24.420Z,99638.50
2018-11-06T06:05:08.172Z,99640.78
2018-11-06T06:07:50.265Z,99645.95
2018-11-06T06:10:33.751Z,99646.83
2018-11-06T06:13:16.532Z,99650.72
2018-11-06T06:15:59.585Z,99646.78
2018-11-06T06:18:42.150Z,99643.28
2018-11-06T06:21:25.199Z,99643.61
2018-11-06T06:24:08.188Z,99630.64
2018-11-06T06:26:51.980Z,99635.00
2018-11-06T06:29:34.236Z,99636.23
2018-11-06T06:32:17.255Z,99640.46
2018-11-06T06:35:00.144Z,99646.08
2018-11-06T06:37:43.211Z,99641.36
2018-11-06T06:40:27.054Z,99650.40
2018-11-06T06:43:10.772Z,99654.38
2018-11-06T06:45:53.923Z,99654.80
2018-11-06T06:48:38.435Z,99663.84
2018-11-06T06:51:20.851Z,99661.80
2018-11-06T06:54:04.286Z,99661.78
2018-11-06T06:56:47.129Z,99656.56
2018-11-06T06:59:30.975Z,99658.71
2018-11-06T07:02:14.435Z,99659.55
2018-11-06T07:04:56.711Z,99656.09
2018-11-06T07:07:40.879Z,99664.22
2018-11-06T07:10:25.304Z,99666.77
2018-11-06T07:13:08.128Z,99669.22
2018-11-06T07:15:50.619Z,99670.91
2018-11-06T07:18:33.640Z,99672.58
2018-11-06T07:21:17.006Z,99663.51
2018-11-06T07:23:59.839Z,99660.95
2018-11-06T07:26:41.802Z,99663.77
2018-11-06T07:29:27.521Z,99657.98
2018-11-06T07:32:10.624Z,99658.34
2018-11-06T07:34:53.314Z,99660.31
2018-11-06T07:37:36.380Z,99657.39
2018-11-06T07:40:20.072Z,99661.66
2018-11-06T07:43:02.697Z,99667.23
2018-11-06T07:45:46.451Z,99675.28
2018-11-06T07:48:28.730Z,99679.09
2018-11-06T07:51:12.131Z,99689.37
2018-11-06T07:53:54.843Z,99700.57
2018-11-06T07:56:37.950Z,99693.17
2018-11-06T07:59:21.651Z,99694.94
2018-11-06T08:02:05.860Z,99689.81
2018-11-06T08:04:48.107Z,99689.31
2018-11-06T08:07:31.524Z,99693.88
2018-11-06T08:10:15.239Z,99692.27
2018-11-06T08:12:57.946Z,99705.02
2018-11-06T08:15:43.817Z,99709.28
2018-11-06T08:18:28.275Z,99712.13
2018-11-06T08:21:10.803Z,99701.97
2018-11-06T08:23:54.331Z,99699.80
2018-11-06T08:26:37.779Z,99692.88
2018-11-06T08:29:20.346Z,99696.56
2018-11-06T08:32:03.905Z,99694.64
2018-11-06T08:34:49.143Z,99697.16
2018-11-06T08:37:33.390Z,99703.67
2018-11-06T08:40:17.859Z,99704.43
2018-11-06T08:43:01.276Z,99703.14
2018-11-06T08:45:44.399Z,99701.57
2018-11-06T08:48:27.030Z,99693.55
2018-11-06T08:51:09.620Z,99688.25
2018-11-06T08:53:52.024Z,99674.91
2018-11-06T08:56:36.175Z,99675.13
2018-11-06T08:59:19.771Z,99672.38
2018-11-06T09:02:03.621Z,99678.85
2018-11-06T09:04:46.527Z,99689.39
2018-11-06T09:07:28.847Z,99689.12
2018-11-06T09:10:12.703Z,99689.13
2018-11-06T09:12:56.387Z,99692.09
2018-11-06T09:15:40.595Z,99688.73
2018-11-06T09:18:22.859Z,99694.63
2018-11-06T09:21:06.331Z,99691.02
2018-11-06T09:23:48.935Z,99685.46
2018-11-06T09:26:31.694Z,99687.04
2018-11-06T09:29:14.864Z,99685.46
2018-11-06T09:31:57.658Z,99687.98
2018-11-06T09:34:40.536Z,99696.90
2018-11-06T09:37:24.137Z,99691.98
2018-11-06T09:40:08.032Z,99692.80
2018-11-06T09:42:50.879Z,99685.42
2018-11-06T09:45:33.385Z,99684.09
2018-11-06T09:48:17.359Z,99682.13
2018-11-06T09:51:00.289Z,99682.09
2018-11-06T09:53:43.194Z,99677.00
2018-11-06T09:56:26.040Z,99666.48
2018-11-06T09:59:08.634Z,99664.08
2018-11-06T10:01:52.563Z,99668.34
2018-11-06T10:04:36.122Z,99665.08
2018-11-06T10:07:19.660Z,99670.45
2018-11-06T10:10:03.117Z,99674.91
2018-11-06T10:12:48.064Z,99672.86
2018-11-06T10:15:31.019Z,99677.00
2018-11-06T10:18:13.658Z,99673.87
2018-11-06T10:20:57.540Z,99672.05
2018-11-06T10:23:40.152Z,99667.14
2018-11-06T10:26:23.790Z,99671.45
2018-11-06T10:29:07.548Z,99669.08
2018-11-06T10:31:50.523Z,99667.38
2018-11-06T10:34:34.291Z,99672.77
2018-11-06T10:37:17.330Z,99671.91
2018-11-06T10:40:01.378Z,99670.95
2018-11-06T10:42:45.217Z,99670.36
2018-11-06T10:45:30.185Z,99673.45
2018-11-06T10:48:14.616Z,99668.17
2018-11-06T10:50:56.867Z,99669.02
2018-11-06T10:53:40.863Z,99658.94
2018-11-06T10:56:23.791Z,99652.73
2018-11-06T10:59:07.108Z,99636.27
2018-11-06T11:01:55.088Z,99628.37
2018-11-06T11:04:38.252Z,99621.07
2018-11-06T11:07:20.551Z,99615.80
2018-11-06T11:10:05.659Z,99624.41
2018-11-06T11:12:48.194Z,99623.68
2018-11-06T11:15:31.088Z,99616.92
2018-11-06T11:18:14.417Z,99611.95
2018-11-06T11:20:56.712Z,99609.88
2018-11-06T11:23:40.620Z,99608.41
2018-11-06T11:26:24.815Z,99607.66
2018-11-06T11:29:09.911Z,99606.09
2018-11-06T11:31:54.734Z,99609.70
2018-11-06T11:34:38.656Z,99618.74
2018-11-06T11:37:22.140Z,99620.99
2018-11-06T11:40:05.673Z,99619.81
2018-11-06T11:42:48.762Z,99620.36
2018-11-06T11:45:32.235Z,99616.57
2018-11-06T11:48:14.812Z,99612.63
2018-11-06T11:50:57.967Z,99616.67
2018-11-06T11:53:40.521Z,99611.44
2018-11-06T11:56:23.993Z,99606.34
2018-11-06T11:59:06.299Z,99604.72
2018-11-06T12:01:49.007Z,99606.28
2018-11-06T12:04:31.606Z,99602.91
2018-11-06T12:07:15.307Z,99607.40
2018-11-06T12:09:58.848Z,99602.97
2018-11-06T12:12:41.659Z,99605.03
2018-11-06T12:15:25.749Z,99600.27
2018-11-06T12:18:08.724Z,99594.64
2018-11-06T12:20:54.184Z,99594.09
2018-11-06T12:23:37.055Z,99586.12
2018-11-06T12:26:20.025Z,99582.56
2018-11-06T12:29:04.812Z,99579.42
2018-11-06T12:31:47.111Z,99577.80
2018-11-06T12:34:35.026Z,99579.13
2018-11-06T12:37:18.846Z,99566.70
2018-11-06T12:40:02.175Z,99561.88
2018-11-06T12:42:46.347Z,99561.62
2018-11-06T12:45:30.155Z,99558.02
2018-11-06T12:48:14.495Z,99556.59
2018-11-06T12:50:57.759Z,99553.25
2018-11-06T12:53:40.996Z,99558.59
2018-11-06T12:56:24.030Z,99553.75
2018-11-06T12:59:07.724Z,99548.63
2018-11-06T13:01:52.095Z,99547.05
2018-11-06T13:04:35.352Z,99541.91
2018-11-06T13:07:18.452Z,99539.37
2018-11-06T13:10:01.287Z,99543.41
2018-11-06T13:12:43.994Z,99540.81
2018-11-06T13:15:26.830Z,99533.03
2018-11-06T13:18:10.284Z,99533.67
2018-11-06T13:20:55.672Z,99534.13
2018-11-06T13:23:37.939Z,99530.88
2018-11-06T13:26:20.868Z,99536.13
2018-11-06T13:29:03.030Z,99532.19
2018-11-06T13:31:45.388Z,99521.86
2018-11-06T13:34:29.327Z,99525.56
2018-11-06T13:37:13.392Z,99526.87
2018-11-06T13:39:57.831Z,99517.23
2018-11-06T13:42:42.070Z,99522.86
2018-11-06T13:45:25.724Z,99525.09
2018-11-06T13:48:08.364Z,99511.56
2018-11-06T13:50:52.458Z,99519.58
2018-11-06T13:53:35.728Z,99521.34
2018-11-06T13:56:19.904Z,99521.80
2018-11-06T13:59:02.708Z,99524.58
2018-11-06T14:01:46.143Z,99528.42
2018-11-06T14:04:29.104Z,99530.94
2018-11-06T14:07:23.937Z,99527.95
2018-11-06T14:10:20.271Z,99528.20
2018-11-06T14:13:03.796Z,99527.52
2018-11-06T14:15:47.564Z,99532.30
2018-11-06T14:18:30.471Z,99535.45
2018-11-06T14:21:12.906Z,99538.81
2018-11-06T14:23:55.827Z,99540.19
2018-11-06T14:26:39.308Z,99533.58
2018-11-06T14:29:23.713Z,99534.39
2018-11-06T14:32:08.360Z,99538.77
2018-11-06T14:34:54.162Z,99539.13
2018-11-06T14:37:37.021Z,99538.41
2018-11-06T14:40:20.306Z,99544.50
2018-11-06T14:43:04.969Z,99540.90
2018-11-06T14:45:47.672Z,99535.95
2018-11-06T14:48:31.154Z,99541.70
2018-11-06T14:51:13.816Z,99544.42
2018-11-06T14:53:56.129Z,99543.87
2018-11-06T14:56:38.915Z,99540.00
2018-11-06T14:59:23.138Z,99543.00
2018-11-06T15:02:08.685Z,99541.50
2018-11-06T15:04:51.790Z,99542.68
2018-11-06T15:07:37.409Z,99541.86
2018-11-06T15:10:20.501Z,99530.20
2018-11-06T15:13:03.862Z,99529.22
2018-11-06T15:15:46.194Z,99526.14
2018-11-06T15:18:28.741Z,99523.59
2018-11-06T15:21:11.229Z,99529.95
2018-11-06T15:24:06.955Z,99528.95
2018-11-06T15:26:49.979Z,99525.38
2018-11-06T15:29:34.743Z,99525.62
2018-11-06T15:32:17.539Z,99520.05
2018-11-06T15:35:00.021Z,99516.38
2018-11-06T15:37:43.704Z,99527.45
2018-11-06T15:43:47.026Z,99528.30
2018-11-06T15:46:29.763Z,99535.05
2018-11-06T15:49:14.923Z,99531.02
2018-11-06T15:51:59.500Z,99529.54
2018-11-06T15:54:42.658Z,99529.42
2018-11-06T15:57:26.087Z,99532.12
2018-11-06T16:00:16.367Z,99526.45
2018-11-06T16:03:00.105Z,99529.80
2018-11-06T16:05:43.209Z,99529.12
2018-11-06T16:08:26.153Z,99521.89
2018-11-06T16:11:09.352Z,99527.78
2018-11-06T16:13:54.140Z,99527.38
2018-11-06T16:16:37.448Z,99528.87
2018-11-06T16:19:22.432Z,99528.41
2018-11-06T16:22:15.061Z,99530.88
2018-11-06T16:25:12.915Z,99530.09
2018-11-06T16:27:57.112Z,99527.14
2018-11-06T16:31:02.016Z,99528.20
2018-11-06T16:33:45.823Z,99530.86
2018-11-06T16:36:28.677Z,99540.37
2018-11-06T16:39:19.392Z,99532.93
2018-11-06T16:42:03.004Z,99527.83
2018-11-06T16:44:45.715Z,99537.13
2018-11-06T16:47:29.326Z,99540.78
2018-11-06T16:50:14.950Z,99543.67
2018-11-06T16:52:58.277Z,99548.77
2018-11-06T16:55:41.407Z,99550.37
2018-11-06T16:58:24.709Z,99554.41
2018-11-06T17:01:07.399Z,99554.46
2018-11-06T17:03:53.065Z,99558.69
2018-11-06T17:06:42.694Z,99556.63
2018-11-06T17:09:26.327Z,99559.42
2018-11-06T17:12:12.220Z,99559.87
2018-11-06T17:14:55.967Z,99566.94
2018-11-06T17:17:39.871Z,99564.58
2018-11-06T17:20:24.567Z,99563.72
2018-11-06T17:23:17.050Z,99565.07
2018-11-06T17:26:01.516Z,99561.77
2018-11-06T17:28:45.115Z,99565.47
2018-11-06T17:31:28.856Z,99559.52
2018-11-06T17:34:12.991Z,99552.13
2018-11-06T17:36:56.088Z,99550.38
2018-11-06T17:39:40.753Z,99549.62
2018-11-06T17:42:24.254Z,99548.09
2018-11-06T17:45:09.496Z,99549.93
2018-11-06T17:47:51.883Z,99552.30
2018-11-06T17:50:36.093Z,99548.77
2018-11-06T17:53:19.198Z,99545.09
2018-11-06T17:56:02.653Z,99539.50
2018-11-06T17:58:44.772Z,99537.13
2018-11-06T18:01:28.271Z,99541.33
2018-11-06T18:04:13.415Z,99536.09
2018-11-06T18:06:56.415Z,99539.92
2018-11-06T18:09:39.044Z,99537.38
2018-11-06T18:12:22.708Z,99541.04
2018-11-06T18:15:06.069Z,99536.13
2018-11-06T18:17:48.964Z,99530.25
2018-11-06T18:20:34.438Z,99522.24
2018-11-06T18:23:18.597Z,99525.16
2018-11-06T18:26:04.004Z,99531.02
2018-11-06T18:28:46.943Z,99530.45
2018-11-06T18:31:38.204Z,99530.25
2018-11-06T18:34:21.409Z,99530.38
2018-11-06T18:37:05.591Z,99535.81
2018-11-06T18:39:49.254Z,99537.32
2018-11-06T18:42:31.992Z,99541.02
2018-11-06T18:45:16.003Z,99547.53
2018-11-06T18:47:58.945Z,99549.04
2018-11-06T18:50:43.807Z,99549.53
2018-11-06T18:53:27.203Z,99547.12
2018-11-06T18:56:10.630Z,99556.28
2018-11-06T18:58:54.017Z,99558.74
2018-11-06T19:01:37.107Z,99556.81
2018-11-06T19:04:23.584Z,99559.64
2018-11-06T19:07:07.971Z,99565.75
2018-11-06T19:09:51.417Z,99559.79
2018-11-06T19:12:36.681Z,99556.23
2018-11-06T19:15:21.069Z,99558.98
2018-11-06T19:18:06.170Z,99556.23
2018-11-06T19:20:51.453Z,99546.05
2018-11-06T19:23:36.314Z,99564.05
2018-11-06T19:26:21.501Z,99565.83
2018-11-06T19:29:06.812Z,99579.42
2018-11-06T19:31:50.552Z,99581.53
2018-11-06T19:34:35.316Z,99587.11
2018-11-06T19:37:19.955Z,99592.16
2018-11-06T19:40:04.666Z,99601.00
2018-11-06T19:42:50.665Z,99600.67
2018-11-06T19:45:35.437Z,99604.61
2018-11-06T19:48:21.549Z,99602.52
2018-11-06T19:51:05.444Z,99612.23
2018-11-06T19:53:49.817Z,99612.08
2018-11-06T19:56:35.647Z,99612.48
2018-11-06T19:59:19.743Z,99613.94
2018-11-06T20:02:05.615Z,99608.16
2018-11-06T20:04:51.661Z,99605.31
2018-11-06T20:07:37.070Z,99603.30
2018-11-06T20:10:23.303Z,99609.22
2018-11-06T20:13:09.590Z,99606.82
2018-11-06T20:15:54.098Z,99610.27
2018-11-06T20:18:37.880Z,99611.69
2018-11-06T20:21:23.357Z,99610.39
2018-11-06T20:24:06.908Z,99610.55
2018-11-06T20:26:50.588Z,99612.21
2018-11-06T20:29:34.728Z,99602.95
2018-11-06T20:32:18.371Z,99609.80
2018-11-06T20:35:03.338Z,99605.02
2018-11-06T20:37:47.746Z,99616.46
2018-11-06T20:40:32.421Z,99624.06
2018-11-06T20:43:16.589Z,99621.94
2018-11-06T20:46:01.290Z,99623.52
2018-11-06T20:48:44.907Z,99617.31
2018-11-06T20:51:30.432Z,99623.33
2018-11-06T20:54:14.179Z,99614.55
2018-11-06T20:56:58.847Z,99623.08
2018-11-06T20:59:41.692Z,99617.59
2018-11-06T21:02:26.040Z,99618.44
2018-11-06T21:05:10.443Z,99616.34
2018-11-06T21:07:54.824Z,99611.91
2018-11-06T21:10:39.191Z,99612.53
2018-11-06T21:13:23.709Z,99620.30
2018-11-06T21:16:07.465Z,99626.65
2018-11-06T21:18:52.338Z,99622.86
2018-11-06T21:21:36.457Z,99633.02
2018-11-06T21:24:20.507Z,99640.20
2018-11-06T21:27:04.431Z,99633.13
2018-11-06T21:29:48.561Z,99628.98
2018-11-06T21:32:32.800Z,99622.23
2018-11-06T21:35:17.377Z,99627.43
2018-11-06T21:38:01.312Z,99627.54
2018-11-06T21:40:45.766Z,99627.87
2018-11-06T21:43:29.128Z,99636.64
2018-11-06T21:46:11.862Z,99626.50
2018-11-06T21:48:55.432Z,99627.02
2018-11-06T21:51:38.901Z,99619.31
2018-11-06T21:54:22.226Z,99612.03
2018-11-06T21:57:06.456Z,99611.72
2018-11-06T21:59:49.717Z,99606.97
2018-11-06T22:02:32.935Z,99608.42
2018-11-06T22:05:18.184Z,99606.80
2018-11-06T22:08:02.673Z,99611.13
2018-11-06T22:10:51.437Z,99612.46
2018-11-06T22:13:34.364Z,99619.83
2018-11-06T22:16:17.263Z,99618.10
2018-11-06T22:18:59.341Z,99612.98
2018-11-06T22:21:42.090Z,99612.23
2018-11-06T22:24:25.536Z,99625.30
2018-11-06T22:27:08.534Z,99631.11
2018-11-06T22:29:50.737Z,99632.05
2018-11-06T22:32:33.624Z,99620.76
2018-11-06T22:35:16.747Z,99629.77
2018-11-06T22:37:59.538Z,99632.91
2018-11-06T22:40:43.687Z,99643.91
2018-11-06T22:43:28.632Z,99633.73
2018-11-06T22:46:12.512Z,99636.06
2018-11-06T22:48:55.852Z,99642.06
2018-11-06T22:51:38.080Z,99647.34
2018-11-06T22:54:21.106Z,99652.83
2018-11-06T22:57:08.772Z,99660.66
2018-11-06T22:59:52.899Z,99646.88
2018-11-06T23:02:35.502Z,99636.25
2018-11-06T23:05:18.506Z,99637.97
2018-11-06T23:08:06.604Z,99632.03
2018-11-06T23:10:48.978Z,99635.66
2018-11-06T23:13:33.120Z,99632.95
2018-11-06T23:16:16.597Z,99640.33
2018-11-06T23:18:59.234Z,99645.10
2018-11-06T23:21:42.243Z,99641.05
2018-11-06T23:24:25.105Z,99635.37
2018-11-06T23:27:08.387Z,99623.71
2018-11-06T23:29:51.063Z,99627.51
2018-11-06T23:32:34.681Z,99638.02
2018-11-06T23:35:17.499Z,99637.23
2018-11-06T23:38:00.319Z,99624.16
2018-11-06T23:44:20.396Z,99628.13
2018-11-06T23:47:02.842Z,99640.22
2018-11-06T23:49:45.212Z,99638.68
2018-11-06T23:52:27.453Z,99644.27
2018-11-06T23:55:09.799Z,99637.73
2018-11-06T23:57:52.021Z,99635.27
